Time;durP1;ratioP1;P1;durP2;ratioP2;P2;SDS_P1;SDS_P2;PMS_P1;PMS_P2;Temp;Humidity;BMP_temperature;BMP_pressure;BME280_temperature;BME280_humidity;BME280_pressure;Samples;Min_cycle;Max_cycle;Signal;HPM_P1;HPM_P2
2024/01/02 00:01:02;;;;;;;9.90;5.80;;;;;;;;;;5023859;28;20551;-54
2024/01/02 00:03:28;;;;;;;10.30;6.05;;;;;;;;;;5020522;28;20068;-55
2024/01/02 00:05:54;;;;;;;10.00;5.88;;;;;;;;;;5031226;28;20384;-56
2024/01/02 00:08:20;;;;;;;9.98;5.85;;;;;;;;;;5034610;28;20025;-53
2024/01/02 00:10:46;;;;;;;9.90;5.80;;;;;;;;;;5034542;28;20303;-57
2024/01/02 00:13:12;;;;;;;9.93;5.82;;;;;;;;;;5016553;28;20150;-60
2024/01/02 00:15:38;;;;;;;10.25;6.00;;;;;;;;;;5033773;28;20051;-60
2024/01/02 00:18:04;;;;;;;9.40;5.53;;;;;;;;;;5034160;28;20526;-56
2024/01/02 00:20:30;;;;;;;10.57;6.03;;;;;;;;;;5033072;28;20495;-57
2024/01/02 00:22:56;;;;;;;9.40;5.53;;;;;;;;;;5033124;28;20585;-58
2024/01/02 00:25:22;;;;;;;9.75;5.72;;;;;;;;;;5033977;28;20021;-58
2024/01/02 00:27:48;;;;;;;9.55;5.60;;;;;;;;;;5015732;28;20108;-57
2024/01/02 00:30:14;;;;;;;10.05;5.90;;;;;;;;;;5032792;28;20045;-56
2024/01/02 00:32:40;;;;;;;10.05;5.90;;;;;;;;;;5033439;28;20025;-55
2024/01/02 00:35:06;;;;;;;9.80;5.75;;;;;;;;;;5034267;28;20049;-59
2024/01/02 00:37:32;;;;;;;9.45;5.60;;;;;;;;;;5032653;28;20116;-52
2024/01/02 00:39:58;;;;;;;9.30;5.50;;;;;;;;;;5032897;28;20052;-53
2024/01/02 00:42:24;;;;;;;9.50;5.60;;;;;;;;;;5032234;28;20465;-55
2024/01/02 00:44:50;;;;;;;9.10;5.43;;;;;;;;;;5033595;28;20029;-58
2024/01/02 00:47:16;;;;;;;9.75;5.75;;;;;;;;;;5032283;28;20500;-55
2024/01/02 00:49:42;;;;;;;10.40;6.10;;;;;;;;;;5032416;28;20029;-59
2024/01/02 00:52:08;;;;;;;10.05;5.88;;;;;;;;;;5032434;28;20028;-57
2024/01/02 00:54:34;;;;;;;10.02;5.88;;;;;;;;;;5032592;28;20025;-58
2024/01/02 00:57:00;;;;;;;9.32;5.50;;;;;;;;;;5032554;28;20501;-59
2024/01/02 00:59:26;;;;;;;9.73;5.75;;;;;;;;;;5032515;28;20029;-52
2024/01/02 01:01:52;;;;;;;9.38;5.50;;;;;;;;;;5031600;28;20483;-58
2024/01/02 01:04:18;;;;;;;9.13;5.40;;;;;;;;;;5032509;28;20021;-60
2024/01/02 01:06:44;;;;;;;9.18;5.47;;;;;;;;;;5032828;28;20072;-52
2024/01/02 01:09:10;;;;;;;8.82;5.22;;;;;;;;;;5032018;28;20115;-57
2024/01/02 01:11:36;;;;;;;9.05;5.32;;;;;;;;;;5032079;28;20040;-56
2024/01/02 01:14:02;;;;;;;9.00;5.30;;;;;;;;;;5032839;28;20053;-54
2024/01/02 01:16:28;;;;;;;9.20;5.40;;;;;;;;;;5032791;28;20087;-56
2024/01/02 01:18:54;;;;;;;9.18;5.40;;;;;;;;;;5032269;28;20098;-58
2024/01/02 01:21:20;;;;;;;9.25;5.43;;;;;;;;;;5014165;28;20048;-59
2024/01/02 01:23:46;;;;;;;8.93;5.30;;;;;;;;;;5014892;28;20118;-57
2024/01/02 01:26:12;;;;;;;9.55;5.65;;;;;;;;;;5032105;28;20109;-55
2024/01/02 01:28:38;;;;;;;9.13;5.40;;;;;;;;;;5032593;28;20443;-59
2024/01/02 01:31:04;;;;;;;9.98;6.60;;;;;;;;;;5031506;28;20403;-56
2024/01/02 01:33:30;;;;;;;9.32;5.50;;;;;;;;;;5032481;28;20021;-55
2024/01/02 01:35:56;;;;;;;9.60;6.18;;;;;;;;;;5032412;28;20029;-56
2024/01/02 01:38:22;;;;;;;9.07;5.38;;;;;;;;;;5014193;28;20025;-58
2024/01/02 01:40:48;;;;;;;9.00;5.32;;;;;;;;;;5031853;28;20548;-60
2024/01/02 01:43:14;;;;;;;9.10;5.40;;;;;;;;;;5032608;28;20021;-60
2024/01/02 01:45:40;;;;;;;9.60;5.70;;;;;;;;;;5031799;28;20108;-58
2024/01/02 01:48:08;;;;;;;9.80;5.80;;;;;;;;;;5032377;28;20040;-60
2024/01/02 01:50:35;;;;;;;9.90;5.80;;;;;;;;;;5032819;28;20475;-60
2024/01/02 01:53:03;;;;;;;9.77;5.80;;;;;;;;;;5032366;28;20103;-59
2024/01/02 01:55:29;;;;;;;9.77;5.75;;;;;;;;;;5032287;28;20049;-55
2024/01/02 01:57:55;;;;;;;9.95;5.88;;;;;;;;;;5032581;28;20448;-57
2024/01/02 02:00:21;;;;;;;10.30;6.00;;;;;;;;;;5034764;28;20093;-52
2024/01/02 02:02:48;;;;;;;10.80;6.30;;;;;;;;;;5018871;28;20045;-59
2024/01/02 02:05:16;;;;;;;10.35;6.10;;;;;;;;;;5022992;28;20049;-59
2024/01/02 02:07:42;;;;;;;10.15;6.00;;;;;;;;;;5016474;28;20033;-57
2024/01/02 02:10:08;;;;;;;10.98;6.45;;;;;;;;;;5016344;28;20052;-60
2024/01/02 02:12:35;;;;;;;10.82;6.35;;;;;;;;;;5015238;28;20033;-56
2024/01/02 02:15:01;;;;;;;11.88;7.15;;;;;;;;;;5016302;28;20109;-58
2024/01/02 02:17:31;;;;;;;11.20;6.57;;;;;;;;;;5016573;28;20022;-61
2024/01/02 02:19:57;;;;;;;11.23;6.60;;;;;;;;;;5028166;28;20029;-55
2024/01/02 02:22:27;;;;;;;11.70;6.80;;;;;;;;;;5017715;28;20025;-57
2024/01/02 02:24:53;;;;;;;11.35;6.65;;;;;;;;;;5032777;28;20037;-55
2024/01/02 02:27:19;;;;;;;11.25;6.63;;;;;;;;;;5024278;28;20097;-57
2024/01/02 02:29:45;;;;;;;11.60;6.75;;;;;;;;;;5034138;28;20041;-58
2024/01/02 02:32:11;;;;;;;11.60;6.85;;;;;;;;;;5034909;28;20033;-54
2024/01/02 02:34:37;;;;;;;12.05;7.05;;;;;;;;;;5035432;28;20036;-58
2024/01/02 02:37:03;;;;;;;11.93;7.00;;;;;;;;;;5035660;28;20483;-59
2024/01/02 02:39:29;;;;;;;12.25;7.13;;;;;;;;;;5036241;28;20029;-54
2024/01/02 02:41:55;;;;;;;12.43;7.30;;;;;;;;;;5035979;28;20029;-57
2024/01/02 02:44:21;;;;;;;12.63;7.38;;;;;;;;;;5036050;28;20044;-58
2024/01/02 02:46:47;;;;;;;13.10;7.70;;;;;;;;;;5036032;28;20069;-57
2024/01/02 02:49:13;;;;;;;12.77;7.50;;;;;;;;;;5035607;28;20030;-57
2024/01/02 02:51:39;;;;;;;12.73;7.40;;;;;;;;;;5035241;28;20037;-56
2024/01/02 02:54:05;;;;;;;12.63;7.43;;;;;;;;;;5035796;28;20041;-58
2024/01/02 02:56:31;;;;;;;13.23;7.78;;;;;;;;;;5035869;28;20025;-59
2024/01/02 02:58:57;;;;;;;13.10;7.60;;;;;;;;;;5035446;28;20538;-55
2024/01/02 03:01:23;;;;;;;12.95;7.70;;;;;;;;;;5017663;28;20040;-56
2024/01/02 03:03:50;;;;;;;13.23;7.80;;;;;;;;;;5035449;28;20092;-59
2024/01/02 03:06:15;;;;;;;13.35;7.97;;;;;;;;;;5035546;28;20495;-54
2024/01/02 03:08:42;;;;;;;13.55;8.15;;;;;;;;;;5034933;28;20029;-54
2024/01/02 03:11:08;;;;;;;13.00;7.60;;;;;;;;;;5032558;28;20033;-56
2024/01/02 03:13:34;;;;;;;12.77;7.47;;;;;;;;;;5035060;28;20025;-56
2024/01/02 03:16:00;;;;;;;13.00;7.60;;;;;;;;;;5034874;28;20148;-57
2024/01/02 03:18:26;;;;;;;13.32;8.13;;;;;;;;;;5034808;28;20092;-54
2024/01/02 03:20:52;;;;;;;13.48;8.38;;;;;;;;;;5016676;28;20587;-56
2024/01/02 03:23:18;;;;;;;13.45;8.27;;;;;;;;;;5035097;28;20025;-56
2024/01/02 03:25:44;;;;;;;13.55;8.73;;;;;;;;;;5034211;28;20383;-57
2024/01/02 03:28:10;;;;;;;13.65;9.02;;;;;;;;;;5034463;28;20049;-56
2024/01/02 03:30:40;;;;;;;13.57;8.75;;;;;;;;;;5034593;28;20128;-57
2024/01/02 03:33:06;;;;;;;13.60;8.93;;;;;;;;;;5034323;28;20020;-57
2024/01/02 03:35:32;;;;;;;13.85;9.48;;;;;;;;;;5013020;28;20089;-59
2024/01/02 03:37:58;;;;;;;13.90;9.70;;;;;;;;;;5014639;28;20021;-57
2024/01/02 03:40:24;;;;;;;13.88;9.55;;;;;;;;;;5014853;28;20217;-59
2024/01/02 03:42:50;;;;;;;13.90;9.65;;;;;;;;;;5014486;28;20096;-56
2024/01/02 03:45:16;;;;;;;13.85;9.57;;;;;;;;;;5028862;28;20402;-53
2024/01/02 03:47:42;;;;;;;13.90;9.65;;;;;;;;;;5016852;28;20022;-55
2024/01/02 03:50:08;;;;;;;13.90;9.50;;;;;;;;;;5014595;28;20038;-54
2024/01/02 03:52:34;;;;;;;13.68;8.85;;;;;;;;;;5014020;28;20022;-52
2024/01/02 03:55:00;;;;;;;13.63;8.82;;;;;;;;;;5013945;28;20170;-54
2024/01/02 03:57:27;;;;;;;13.73;9.07;;;;;;;;;;5014763;28;20018;-59
2024/01/02 03:59:54;;;;;;;13.77;9.15;;;;;;;;;;5013118;28;20017;-53
2024/01/02 04:02:20;;;;;;;13.55;8.77;;;;;;;;;;5012909;28;20029;-54
2024/01/02 04:04:45;;;;;;;13.55;8.60;;;;;;;;;;5012809;28;20129;-57
2024/01/02 04:07:11;;;;;;;13.70;8.93;;;;;;;;;;5012670;28;20018;-56
2024/01/02 04:09:37;;;;;;;13.50;8.63;;;;;;;;;;5014773;28;20140;-58
2024/01/02 04:12:04;;;;;;;13.68;9.10;;;;;;;;;;5013050;28;20048;-57
2024/01/02 04:14:29;;;;;;;13.48;8.73;;;;;;;;;;5015039;28;20045;-58
2024/01/02 04:16:55;;;;;;;13.32;8.20;;;;;;;;;;5022350;28;20470;-56
2024/01/02 04:19:21;;;;;;;13.50;8.50;;;;;;;;;;5014468;28;20029;-57
2024/01/02 04:21:48;;;;;;;13.52;8.43;;;;;;;;;;5012624;28;20084;-57
2024/01/02 04:24:15;;;;;;;13.38;8.23;;;;;;;;;;5013956;28;20062;-56
2024/01/02 04:26:41;;;;;;;13.60;8.70;;;;;;;;;;5014114;28;20054;-56
2024/01/02 04:29:07;;;;;;;13.60;8.80;;;;;;;;;;5013651;28;20036;-54
2024/01/02 04:31:33;;;;;;;13.55;8.77;;;;;;;;;;5013887;28;20061;-56
2024/01/02 04:33:59;;;;;;;13.57;8.73;;;;;;;;;;5013977;28;20639;-56
2024/01/02 04:36:28;;;;;;;13.70;9.10;;;;;;;;;;5014119;28;20018;-54
2024/01/02 04:38:54;;;;;;;13.77;9.27;;;;;;;;;;5014470;28;20070;-59
2024/01/02 04:41:20;;;;;;;13.70;9.20;;;;;;;;;;5014100;28;20018;-58
2024/01/02 04:43:46;;;;;;;13.77;9.27;;;;;;;;;;5024822;28;20065;-56
2024/01/02 04:46:12;;;;;;;13.80;9.27;;;;;;;;;;5019166;28;20503;-54
2024/01/02 04:48:38;;;;;;;13.80;9.40;;;;;;;;;;5013811;28;20061;-55
2024/01/02 04:51:04;;;;;;;13.80;9.35;;;;;;;;;;5014248;28;20034;-55
2024/01/02 04:53:30;;;;;;;13.88;9.57;;;;;;;;;;4996521;28;20112;-56
2024/01/02 04:55:56;;;;;;;13.80;9.30;;;;;;;;;;5014980;28;20026;-58
2024/01/02 04:58:22;;;;;;;13.85;9.52;;;;;;;;;;5014017;28;20025;-55
2024/01/02 05:00:48;;;;;;;13.75;9.27;;;;;;;;;;5014048;28;20033;-55
2024/01/02 05:03:14;;;;;;;13.80;9.40;;;;;;;;;;5013949;28;20025;-58
2024/01/02 05:05:40;;;;;;;13.80;9.35;;;;;;;;;;5013994;28;20111;-58
2024/01/02 05:08:06;;;;;;;13.90;9.50;;;;;;;;;;5013679;28;20033;-58
2024/01/02 05:10:32;;;;;;;13.80;9.60;;;;;;;;;;5014135;28;20095;-55
2024/01/02 05:12:59;;;;;;;13.73;9.15;;;;;;;;;;4996186;28;20069;-57
2024/01/02 05:15:25;;;;;;;13.85;9.55;;;;;;;;;;5013287;28;20066;-56
2024/01/02 05:17:51;;;;;;;15.30;10.60;;;;;;;;;;4996197;28;20029;-57
2024/01/02 05:20:16;;;;;;;13.93;9.80;;;;;;;;;;5014240;28;20109;-59
2024/01/02 05:22:42;;;;;;;13.75;9.45;;;;;;;;;;5013628;28;20032;-57
2024/01/02 05:25:09;;;;;;;13.82;9.38;;;;;;;;;;5013870;28;20716;-56
2024/01/02 05:27:35;;;;;;;13.93;9.60;;;;;;;;;;5013813;28;20459;-57
2024/01/02 05:30:02;;;;;;;13.90;9.73;;;;;;;;;;5014198;28;20030;-57
2024/01/02 05:32:28;;;;;;;13.88;9.55;;;;;;;;;;5013700;28;20369;-56
2024/01/02 05:34:54;;;;;;;13.82;9.63;;;;;;;;;;5012499;28;20022;-54
2024/01/02 05:37:20;;;;;;;13.98;9.85;;;;;;;;;;5013755;28;20018;-53
2024/01/02 05:39:46;;;;;;;14.00;9.85;;;;;;;;;;5013354;28;20022;-55
2024/01/02 05:42:12;;;;;;;14.07;10.07;;;;;;;;;;5013190;28;20076;-57
2024/01/02 05:44:38;;;;;;;13.93;9.77;;;;;;;;;;5012728;28;20029;-57
2024/01/02 05:47:04;;;;;;;13.90;9.52;;;;;;;;;;5013231;28;20038;-57
2024/01/02 05:49:30;;;;;;;13.85;9.48;;;;;;;;;;5013897;28;20033;-55
2024/01/02 05:51:56;;;;;;;13.90;9.60;;;;;;;;;;5012418;28;20052;-57
2024/01/02 05:54:23;;;;;;;13.82;9.35;;;;;;;;;;5013130;28;20078;-55
2024/01/02 05:56:50;;;;;;;13.80;9.65;;;;;;;;;;5012942;28;20042;-54
2024/01/02 05:59:16;;;;;;;13.95;9.93;;;;;;;;;;5013521;28;20492;-55
2024/01/02 06:01:41;;;;;;;13.95;9.93;;;;;;;;;;5012927;28;20038;-53
2024/01/02 06:04:08;;;;;;;14.05;10.18;;;;;;;;;;5012963;28;20029;-56
2024/01/02 06:06:34;;;;;;;14.23;10.75;;;;;;;;;;5013320;28;20022;-57
2024/01/02 06:09:00;;;;;;;14.27;10.80;;;;;;;;;;5013372;28;20029;-54
2024/01/02 06:11:26;;;;;;;14.32;10.90;;;;;;;;;;5014047;28;20033;-56
2024/01/02 06:13:52;;;;;;;14.27;10.75;;;;;;;;;;5013301;28;20030;-55
2024/01/02 06:16:18;;;;;;;14.40;11.05;;;;;;;;;;4995456;28;20018;-55
2024/01/02 06:18:44;;;;;;;14.43;11.15;;;;;;;;;;5012540;28;20122;-54
2024/01/02 06:21:10;;;;;;;14.32;11.02;;;;;;;;;;5012890;28;20443;-57
2024/01/02 06:23:36;;;;;;;14.90;12.68;;;;;;;;;;5012586;28;20038;-56
2024/01/02 06:26:02;;;;;;;15.30;13.68;;;;;;;;;;5012614;28;20056;-55
2024/01/02 06:28:27;;;;;;;15.50;13.80;;;;;;;;;;5012814;28;20038;-57
2024/01/02 06:30:53;;;;;;;17.15;15.45;;;;;;;;;;5012184;28;20040;-55
2024/01/02 06:33:20;;;;;;;17.33;15.63;;;;;;;;;;5012380;28;20121;-53
2024/01/02 06:35:46;;;;;;;19.55;17.75;;;;;;;;;;4995038;28;20033;-54
2024/01/02 06:38:12;;;;;;;24.15;22.15;;;;;;;;;;5012741;28;20014;-54
2024/01/02 06:40:39;;;;;;;22.13;20.23;;;;;;;;;;5013215;28;20125;-57
2024/01/02 06:43:05;;;;;;;22.70;20.80;;;;;;;;;;5012666;28;20527;-55
2024/01/02 06:45:31;;;;;;;20.98;19.08;;;;;;;;;;5062104;23;20607;-47
2024/01/02 06:47:57;;;;;;;20.75;18.90;;;;;;;;;;5035067;28;20029;-47
2024/01/02 06:50:23;;;;;;;21.15;19.25;;;;;;;;;;5035393;28;20066;-50
2024/01/02 06:52:49;;;;;;;21.30;19.40;;;;;;;;;;5051266;28;20021;-51
2024/01/02 06:55:15;;;;;;;20.88;19.02;;;;;;;;;;5017636;28;20037;-47
2024/01/02 06:57:41;;;;;;;22.38;20.48;;;;;;;;;;5030377;28;20105;-49
2024/01/02 07:00:07;;;;;;;23.65;21.65;;;;;;;;;;5032829;28;20095;-50
2024/01/02 07:02:34;;;;;;;23.73;21.73;;;;;;;;;;5032818;28;20541;-49
2024/01/02 07:05:00;;;;;;;24.20;22.20;;;;;;;;;;5032925;28;20105;-47
2024/01/02 07:07:26;;;;;;;22.17;20.27;;;;;;;;;;5011582;28;20392;-52
2024/01/02 07:09:52;;;;;;;21.10;19.20;;;;;;;;;;5031871;28;20030;-48
2024/01/02 07:12:18;;;;;;;21.42;19.52;;;;;;;;;;5011199;28;20080;-46
2024/01/02 07:14:44;;;;;;;20.23;18.42;;;;;;;;;;5029226;28;20033;-54
2024/01/02 07:17:10;;;;;;;21.13;19.23;;;;;;;;;;5011344;28;20028;-50
2024/01/02 07:19:36;;;;;;;21.23;19.33;;;;;;;;;;5029441;28;20547;-49
2024/01/02 07:22:02;;;;;;;21.08;19.20;;;;;;;;;;5032252;28;20033;-48
2024/01/02 07:24:31;;;;;;;20.63;18.83;;;;;;;;;;5011412;28;20029;-48
2024/01/02 07:26:57;;;;;;;20.85;19.05;;;;;;;;;;5024241;28;20029;-53
2024/01/02 07:29:23;;;;;;;20.05;18.25;;;;;;;;;;5032093;28;20059;-50
2024/01/02 07:31:49;;;;;;;20.10;18.30;;;;;;;;;;5031711;28;20033;-50
2024/01/02 07:34:15;;;;;;;20.50;18.70;;;;;;;;;;5011038;28;20025;-50
2024/01/02 07:36:41;;;;;;;24.77;22.77;;;;;;;;;;5029978;28;20431;-52
2024/01/02 07:39:07;;;;;;;23.88;21.88;;;;;;;;;;5032122;28;20022;-52
2024/01/02 07:41:33;;;;;;;27.08;24.88;;;;;;;;;;5031713;28;20113;-52
2024/01/02 07:43:59;;;;;;;27.13;25.02;;;;;;;;;;5014318;28;20439;-50
2024/01/02 07:46:27;;;;;;;25.80;23.70;;;;;;;;;;5032225;28;20029;-51
2024/01/02 07:48:53;;;;;;;25.83;23.73;;;;;;;;;;5031579;28;20017;-48
2024/01/02 07:51:19;;;;;;;26.75;24.65;;;;;;;;;;5031344;28;20025;-46
2024/01/02 07:53:45;;;;;;;25.17;23.08;;;;;;;;;;5031574;28;20060;-46
2024/01/02 07:56:11;;;;;;;25.52;23.42;;;;;;;;;;5034641;28;20029;-48
2024/01/02 07:58:37;;;;;;;24.63;22.63;;;;;;;;;;5015273;28;20025;-49
2024/01/02 08:01:03;;;;;;;25.00;22.92;;;;;;;;;;5020103;28;20018;-46
2024/01/02 08:03:29;;;;;;;25.08;22.98;;;;;;;;;;5012134;28;20076;-51
2024/01/02 08:05:55;;;;;;;25.42;23.33;;;;;;;;;;5030225;28;20029;-50
2024/01/02 08:08:21;;;;;;;25.20;23.10;;;;;;;;;;5031224;28;20018;-50
2024/01/02 08:10:47;;;;;;;25.67;23.58;;;;;;;;;;5032912;28;20075;-46
2024/01/02 08:13:13;;;;;;;26.00;23.90;;;;;;;;;;5040032;28;20066;-46
2024/01/02 08:15:39;;;;;;;25.42;23.33;;;;;;;;;;5030577;28;20021;-50
2024/01/02 08:18:06;;;;;;;25.35;23.25;;;;;;;;;;5031167;28;20037;-50
2024/01/02 08:20:32;;;;;;;24.85;22.85;;;;;;;;;;5031079;28;20096;-49
2024/01/02 08:22:58;;;;;;;24.63;22.63;;;;;;;;;;5013000;28;20637;-52
2024/01/02 08:25:24;;;;;;;25.02;22.92;;;;;;;;;;5031496;28;20017;-48
2024/01/02 08:27:51;;;;;;;25.27;23.17;;;;;;;;;;5031363;28;20037;-50
2024/01/02 08:30:18;;;;;;;24.45;22.45;;;;;;;;;;5021809;28;20017;-49
2024/01/02 08:32:44;;;;;;;25.20;23.20;;;;;;;;;;5051048;28;20036;-47
2024/01/02 08:35:10;;;;;;;24.92;22.92;;;;;;;;;;5050737;28;20263;-46
2024/01/02 08:37:36;;;;;;;29.70;27.40;;;;;;;;;;5051126;28;20029;-47
2024/01/02 08:40:03;;;;;;;28.55;26.35;;;;;;;;;;5050979;28;20025;-50
2024/01/02 08:42:29;;;;;;;28.70;26.50;;;;;;;;;;5050533;28;20104;-51
2024/01/02 08:44:56;;;;;;;28.48;26.27;;;;;;;;;;5050566;28;20040;-50
2024/01/02 08:47:22;;;;;;;28.10;25.90;;;;;;;;;;5050812;28;20535;-51
2024/01/02 08:49:48;;;;;;;28.77;26.58;;;;;;;;;;5050612;28;20215;-49
2024/01/02 08:52:14;;;;;;;25.05;23.05;;;;;;;;;;5050135;28;20029;-48
2024/01/02 08:54:40;;;;;;;26.33;24.10;;;;;;;;;;5050862;28;20025;-49
2024/01/02 08:57:06;;;;;;;23.23;21.33;;;;;;;;;;5041018;28;20010;-47
2024/01/02 08:59:32;;;;;;;22.08;20.17;;;;;;;;;;5011072;28;20026;-48
2024/01/02 09:01:58;;;;;;;21.80;19.90;;;;;;;;;;5010879;28;20033;-47
2024/01/02 09:04:24;;;;;;;20.90;19.10;;;;;;;;;;5011238;28;20033;-51
2024/01/02 09:06:51;;;;;;;21.17;19.27;;;;;;;;;;5010995;28;20395;-48
2024/01/02 09:09:18;;;;;;;19.70;17.90;;;;;;;;;;5010967;28;20034;-48
2024/01/02 09:11:44;;;;;;;19.35;17.55;;;;;;;;;;5010432;28;20076;-50
2024/01/02 09:14:10;;;;;;;19.27;17.48;;;;;;;;;;4992921;28;20018;-47
2024/01/02 09:16:38;;;;;;;18.63;16.83;;;;;;;;;;5010620;28;20511;-51
2024/01/02 09:19:04;;;;;;;18.17;16.38;;;;;;;;;;4993159;28;20022;-51
2024/01/02 09:21:30;;;;;;;17.40;15.70;;;;;;;;;;5010516;28;20029;-54
2024/01/02 09:23:56;;;;;;;17.98;15.98;;;;;;;;;;4992672;28;20535;-50
2024/01/02 09:26:25;;;;;;;16.85;15.15;;;;;;;;;;5010381;28;20021;-51
2024/01/02 09:28:51;;;;;;;18.45;16.63;;;;;;;;;;5010467;28;20036;-46
2024/01/02 09:31:25;;;;;;;16.85;15.15;;;;;;;;;;5020573;28;20394;-51
2024/01/02 09:33:51;;;;;;;17.10;15.40;;;;;;;;;;5032052;28;20025;-52
2024/01/02 09:36:17;;;;;;;17.35;15.65;;;;;;;;;;5032155;28;20028;-50
2024/01/02 09:38:44;;;;;;;17.02;15.32;;;;;;;;;;5049726;28;20025;-48
2024/01/02 09:41:20;;;;;;;16.67;14.98;;;;;;;;;;5031435;28;20025;-51
2024/01/02 09:43:55;;;;;;;16.90;15.20;;;;;;;;;;5049595;28;20036;-48
2024/01/02 09:46:29;;;;;;;17.42;15.73;;;;;;;;;;5031869;28;20028;-50
2024/01/02 09:49:04;;;;;;;17.02;15.32;;;;;;;;;;5049888;28;20056;-52
2024/01/02 09:51:42;;;;;;;16.90;15.20;;;;;;;;;;5049509;28;20017;-51
2024/01/02 09:54:14;;;;;;;16.30;14.60;;;;;;;;;;5049540;28;20032;-48
2024/01/02 09:56:45;;;;;;;16.30;14.60;;;;;;;;;;5032115;28;20025;-48
2024/01/02 09:59:11;;;;;;;15.88;14.18;;;;;;;;;;5014198;28;20026;-45
2024/01/02 10:01:42;;;;;;;15.45;13.85;;;;;;;;;;5010114;28;20080;-49
2024/01/02 10:04:13;;;;;;;16.25;14.55;;;;;;;;;;5010513;28;20116;-45
2024/01/02 10:06:39;;;;;;;18.02;16.23;;;;;;;;;;5010145;28;20033;-47
2024/01/02 10:09:27;;;;;;;19.05;17.25;;;;;;;;;;4992813;28;20026;-45
2024/01/02 10:11:53;;;;;;;20.23;18.37;;;;;;;;;;5010044;28;20532;-50
2024/01/02 10:14:25;;;;;;;18.35;16.55;;;;;;;;;;5010053;28;20106;-44
2024/01/02 10:17:03;;;;;;;18.20;16.40;;;;;;;;;;5010459;28;20077;-49
2024/01/02 10:19:29;;;;;;;17.05;15.35;;;;;;;;;;4992713;28;20468;-49
2024/01/02 10:22:07;;;;;;;16.98;15.27;;;;;;;;;;5012527;28;20029;-46
2024/01/02 10:24:44;;;;;;;16.80;15.10;;;;;;;;;;4996409;28;20022;-47
2024/01/02 10:27:12;;;;;;;17.08;15.38;;;;;;;;;;5013603;28;20030;-47
2024/01/02 10:29:38;;;;;;;;;;;;;;;;;;5014032;28;20076;-47
2024/01/02 10:32:10;;;;;;;18.20;16.40;;;;;;;;;;5013385;28;19959;-52
2024/01/02 10:34:41;;;;;;;17.80;16.10;;;;;;;;;;4995955;28;20022;-48
2024/01/02 10:37:07;;;;;;;18.38;16.58;;;;;;;;;;5013273;28;20029;-49
2024/01/02 10:39:35;;;;;;;17.65;15.95;;;;;;;;;;4995613;28;20025;-48
2024/01/02 10:42:25;;;;;;;17.40;15.70;;;;;;;;;;5013011;28;20058;-45
2024/01/02 10:45:00;;;;;;;16.85;15.15;;;;;;;;;;4978472;28;20053;-47
2024/01/02 10:47:45;;;;;;;16.83;15.13;;;;;;;;;;5015391;28;20076;-49
2024/01/02 10:50:12;;;;;;;16.77;15.07;;;;;;;;;;5032696;28;20495;-50
2024/01/02 10:52:38;;;;;;;15.90;14.20;;;;;;;;;;5032421;28;20038;-45
2024/01/02 10:55:26;;;;;;;15.75;14.05;;;;;;;;;;5032485;28;20576;-49
2024/01/02 10:58:01;;;;;;;16.05;14.35;;;;;;;;;;5033361;28;20487;-45
2024/01/02 11:00:29;;;;;;;15.45;13.75;;;;;;;;;;5015013;28;20021;-46
2024/01/02 11:03:11;;;;;;;15.30;13.57;;;;;;;;;;5032196;28;20032;-46
2024/01/02 11:05:44;;;;;;;15.40;13.70;;;;;;;;;;5031217;28;20041;-47
2024/01/02 11:08:22;;;;;;;15.60;13.90;;;;;;;;;;5014554;28;20034;-46
2024/01/02 11:10:51;;;;;;;16.67;14.98;;;;;;;;;;5014152;28;20087;-47
2024/01/02 11:13:18;;;;;;;18.98;17.17;;;;;;;;;;5014470;28;20022;-48
2024/01/02 11:15:44;;;;;;;23.65;21.65;;;;;;;;;;5032304;28;20487;-51
2024/01/02 11:18:11;;;;;;;22.20;20.30;;;;;;;;;;5032306;28;20490;-49
2024/01/02 11:20:42;;;;;;;22.10;20.20;;;;;;;;;;5032503;28;20057;-47
2024/01/02 11:23:14;;;;;;;20.90;19.00;;;;;;;;;;5032535;28;20605;-51
2024/01/02 11:26:19;;;;;;;22.00;20.10;;;;;;;;;;5032333;28;20535;-46
2024/01/02 11:28:46;;;;;;;22.50;20.60;;;;;;;;;;4951539;28;20032;-48
2024/01/02 11:31:13;;;;;;;21.50;19.60;;;;;;;;;;4951272;28;20060;-52
2024/01/02 11:33:48;;;;;;;21.00;19.10;;;;;;;;;;4989490;28;20046;-48
2024/01/02 11:36:30;;;;;;;21.38;19.48;;;;;;;;;;5032112;28;20071;-47
2024/01/02 11:39:04;;;;;;;22.00;20.10;;;;;;;;;;5031853;28;20578;-48
2024/01/02 11:41:57;;;;;;;21.13;19.23;;;;;;;;;;5031866;28;20030;-47
2024/01/02 11:44:29;;;;;;;20.60;18.80;;;;;;;;;;5031542;28;20033;-49
2024/01/02 11:47:02;;;;;;;20.60;18.80;;;;;;;;;;5014006;28;20032;-46
2024/01/02 11:49:29;;;;;;;19.90;18.10;;;;;;;;;;5014123;28;20028;-50
2024/01/02 11:52:02;;;;;;;18.85;17.05;;;;;;;;;;5031283;28;20538;-47
2024/01/02 11:54:43;;;;;;;18.65;16.85;;;;;;;;;;5013935;28;20304;-48
2024/01/02 11:57:18;;;;;;;19.58;17.77;;;;;;;;;;5012952;28;20049;-48
2024/01/02 11:59:45;;;;;;;17.60;15.90;;;;;;;;;;5011790;28;20579;-47
2024/01/02 12:02:31;;;;;;;18.20;16.50;;;;;;;;;;5011788;28;20033;-49
2024/01/02 12:05:06;;;;;;;18.15;16.35;;;;;;;;;;5011486;28;20044;-50
2024/01/02 12:07:37;;;;;;;17.23;15.52;;;;;;;;;;5011839;28;20417;-46
2024/01/02 12:10:04;;;;;;;16.60;14.90;;;;;;;;;;4994085;28;20384;-52
2024/01/02 12:12:53;;;;;;;17.52;15.75;;;;;;;;;;4993757;28;20103;-48
2024/01/02 12:15:29;;;;;;;16.55;14.85;;;;;;;;;;5011505;28;20065;-48
2024/01/02 12:18:05;;;;;;;16.20;14.50;;;;;;;;;;4994402;28;20430;-51
2024/01/02 12:20:39;;;;;;;15.82;14.13;;;;;;;;;;5011756;28;20022;-51
2024/01/02 12:23:05;;;;;;;15.10;13.30;;;;;;;;;;5011750;28;20101;-50
2024/01/02 12:25:32;;;;;;;15.10;12.95;;;;;;;;;;5012967;28;20120;-50
2024/01/02 12:28:01;;;;;;;14.82;12.45;;;;;;;;;;5012607;28;20484;-53
2024/01/02 12:30:34;;;;;;;14.60;11.65;;;;;;;;;;5013896;28;20492;-49
2024/01/02 12:33:06;;;;;;;14.60;11.60;;;;;;;;;;4995971;28;20112;-48
2024/01/02 12:35:36;;;;;;;14.40;11.20;;;;;;;;;;5012283;28;20503;-48
2024/01/02 12:38:16;;;;;;;14.60;11.68;;;;;;;;;;5010930;28;20040;-48
2024/01/02 12:40:46;;;;;;;14.50;11.63;;;;;;;;;;5011094;28;20026;-51
2024/01/02 12:43:12;;;;;;;16.42;11.70;;;;;;;;;;5010442;28;20037;-49
2024/01/02 12:45:45;;;;;;;14.30;11.05;;;;;;;;;;5011319;28;20034;-48
2024/01/02 12:48:12;;;;;;;14.40;11.40;;;;;;;;;;5011386;28;20018;-50
2024/01/02 12:50:38;;;;;;;14.10;10.25;;;;;;;;;;5011176;28;20452;-47
2024/01/02 12:53:11;;;;;;;14.57;11.70;;;;;;;;;;4993766;28;20095;-50
2024/01/02 12:55:41;;;;;;;14.30;10.90;;;;;;;;;;5011619;28;20025;-50
2024/01/02 12:58:08;;;;;;;14.13;10.60;;;;;;;;;;5011142;28;20503;-50
2024/01/02 13:00:35;;;;;;;14.05;10.15;;;;;;;;;;5011021;28;20042;-50
2024/01/02 13:03:01;;;;;;;14.13;10.48;;;;;;;;;;5010838;28;20030;-49
2024/01/02 13:05:27;;;;;;;14.32;10.90;;;;;;;;;;4993407;28;20139;-49
2024/01/02 13:07:54;;;;;;;14.27;10.50;;;;;;;;;;4993065;28;20025;-49
2024/01/02 13:10:23;;;;;;;14.13;10.38;;;;;;;;;;5010663;28;20022;-50
2024/01/02 13:12:50;;;;;;;14.27;10.75;;;;;;;;;;5010809;28;20050;-50
2024/01/02 13:15:17;;;;;;;14.57;11.77;;;;;;;;;;5010867;28;20639;-50
2024/01/02 13:17:43;;;;;;;14.80;12.10;;;;;;;;;;4993202;28;20399;-53
2024/01/02 13:20:10;;;;;;;14.77;12.32;;;;;;;;;;5010759;28;20033;-52
2024/01/02 13:22:37;;;;;;;15.10;13.38;;;;;;;;;;5010606;28;20094;-51
2024/01/02 13:25:13;;;;;;;15.20;13.45;;;;;;;;;;5010398;28;20079;-49
2024/01/02 13:27:39;;;;;;;15.77;14.07;;;;;;;;;;5010905;28;20048;-49
2024/01/02 13:30:05;;;;;;;15.45;13.75;;;;;;;;;;5010691;28;20025;-50
2024/01/02 13:32:31;;;;;;;15.63;13.93;;;;;;;;;;4992806;28;20025;-47
2024/01/02 13:35:14;;;;;;;16.20;14.50;;;;;;;;;;5010446;28;20041;-49
2024/01/02 13:37:40;;;;;;;15.65;13.95;;;;;;;;;;5010663;28;20021;-47
2024/01/02 13:40:17;;;;;;;15.25;13.63;;;;;;;;;;5010668;28;20112;-49
2024/01/02 13:42:43;;;;;;;15.52;13.82;;;;;;;;;;5010534;28;20026;-47
2024/01/02 13:45:22;;;;;;;15.93;14.23;;;;;;;;;;5009884;28;20038;-49
2024/01/02 13:47:48;;;;;;;16.50;14.80;;;;;;;;;;4992632;28;20496;-50
2024/01/02 13:50:15;;;;;;;16.27;14.57;;;;;;;;;;4993397;28;20025;-46
2024/01/02 13:52:44;;;;;;;18.00;16.20;;;;;;;;;;5009988;28;20080;-48
2024/01/02 13:55:11;;;;;;;18.70;16.90;;;;;;;;;;5010544;28;20018;-49
2024/01/02 13:57:37;;;;;;;18.15;16.35;;;;;;;;;;5014563;28;20058;-48
2024/01/02 14:00:10;;;;;;;18.83;17.02;;;;;;;;;;4996468;28;20468;-52
2024/01/02 14:02:37;;;;;;;19.30;17.50;;;;;;;;;;5014021;28;20491;-49
2024/01/02 14:05:05;;;;;;;19.70;17.90;;;;;;;;;;4996193;28;20385;-48
2024/01/02 14:07:33;;;;;;;19.65;17.85;;;;;;;;;;4996269;28;20126;-52
2024/01/02 14:10:00;;;;;;;19.67;17.87;;;;;;;;;;4996213;28;20399;-49
2024/01/02 14:12:37;;;;;;;18.55;16.75;;;;;;;;;;4996304;28;20273;-50
2024/01/02 14:15:06;;;;;;;16.75;15.05;;;;;;;;;;5013812;28;20029;-48
2024/01/02 14:17:36;;;;;;;18.60;16.80;;;;;;;;;;5013998;28;20042;-47
2024/01/02 14:20:07;;;;;;;17.80;16.10;;;;;;;;;;4996200;28;20025;-52
2024/01/02 14:22:33;;;;;;;18.00;16.30;;;;;;;;;;5013421;28;20053;-51
2024/01/02 14:25:02;;;;;;;17.85;16.15;;;;;;;;;;5013576;28;20105;-50
2024/01/02 14:27:31;;;;;;;17.80;16.10;;;;;;;;;;4996648;28;20037;-49